Time;durP1;ratioP1;P1;durP2;ratioP2;P2;SDS_P1;SDS_P2;PMS_P1;PMS_P2;Temp;Humidity;BMP_temperature;BMP_pressure;BME280_temperature;BME280_humidity;BME280_pressure;Samples;Min_cycle;Max_cycle;Signal;HPM_P1;HPM_P2
2022/01/23 00:02:24;;;;;;;7.65;3.22;;;;;;;;;;5044893;28;20140;-75
2022/01/23 00:04:50;;;;;;;7.88;4.00;;;;;;;;;;5044570;28;20049;-75
2022/01/23 00:07:16;;;;;;;8.50;3.15;;;;;;;;;;5062960;28;20105;-75
2022/01/23 00:09:43;;;;;;;9.30;4.40;;;;;;;;;;5062473;28;20378;-75
2022/01/23 00:12:13;;;;;;;8.02;3.50;;;;;;;;;;5044508;28;20043;-75
2022/01/23 00:17:25;;;;;;;7.35;3.05;;;;;;;;;;5062488;28;20049;-75
2022/01/23 00:19:56;;;;;;;10.90;3.42;;;;;;;;;;5061103;28;20044;-75
2022/01/23 00:22:27;;;;;;;7.68;3.38;;;;;;;;;;5061720;28;20102;-74
2022/01/23 00:30:27;;;;;;;7.35;3.05;;;;;;;;;;5052190;28;20468;-75
2022/01/23 00:32:54;;;;;;;8.98;2.80;;;;;;;;;;5052223;28;20120;-75
2022/01/23 00:35:20;;;;;;;8.43;3.13;;;;;;;;;;5035908;28;20549;-74
2022/01/23 00:37:47;;;;;;;7.82;3.45;;;;;;;;;;5052452;28;20504;-75
2022/01/23 00:40:13;;;;;;;8.88;3.70;;;;;;;;;;5035367;28;20299;-75
2022/01/23 00:42:39;;;;;;;7.55;3.72;;;;;;;;;;5051977;28;20413;-75
2022/01/23 00:47:51;;;;;;;4.40;2.90;;;;;;;;;;5051571;28;20049;-75
2022/01/23 00:50:17;;;;;;;8.60;3.35;;;;;;;;;;5035517;28;20493;-75
2022/01/23 00:52:43;;;;;;;6.10;3.00;;;;;;;;;;5034401;28;20086;-75
2022/01/23 00:55:09;;;;;;;6.30;3.15;;;;;;;;;;5051974;28;20040;-75
2022/01/23 00:57:35;;;;;;;6.68;3.28;;;;;;;;;;5051955;28;20045;-75
2022/01/23 01:00:01;;;;;;;8.10;3.35;;;;;;;;;;5051681;28;20409;-75
2022/01/23 01:02:28;;;;;;;8.70;3.15;;;;;;;;;;5051540;28;20092;-74
2022/01/23 01:04:54;;;;;;;5.93;3.17;;;;;;;;;;5051602;28;20085;-75
2022/01/23 01:07:20;;;;;;;9.07;3.20;;;;;;;;;;5034801;28;20033;-75
2022/01/23 01:09:50;;;;;;;10.10;3.22;;;;;;;;;;5035003;28;20037;-75
2022/01/23 01:12:31;;;;;;;8.80;3.25;;;;;;;;;;5035049;28;20493;-75
2022/01/23 01:31:23;;;;;;;7.38;3.28;;;;;;;;;;5051199;28;20049;-75
2022/01/23 01:33:55;;;;;;;11.15;3.78;;;;;;;;;;5051043;28;20045;-75
2022/01/23 01:38:59;;;;;;;8.65;3.15;;;;;;;;;;5051232;28;20159;-75
2022/01/23 01:41:25;;;;;;;8.63;3.28;;;;;;;;;;5034288;28;20132;-75
2022/01/23 01:43:52;;;;;;;8.18;3.40;;;;;;;;;;5051090;28;20128;-75
2022/01/23 01:46:18;;;;;;;8.25;3.53;;;;;;;;;;5050829;28;20135;-74
2022/01/23 01:48:45;;;;;;;6.55;3.38;;;;;;;;;;5034081;28;20123;-75
2022/01/23 01:51:16;;;;;;;7.70;3.30;;;;;;;;;;5050743;28;20103;-75
2022/01/23 01:53:48;;;;;;;5.18;3.22;;;;;;;;;;5050923;28;20052;-75
2022/01/23 01:56:14;;;;;;;7.80;3.55;;;;;;;;;;5034018;28;20037;-75
2022/01/23 02:02:42;;;;;;;5.40;3.53;;;;;;;;;;5050989;28;20045;-75
2022/01/23 02:09:20;;;;;;;6.13;3.17;;;;;;;;;;5050291;28;20102;-75
2022/01/23 02:14:31;;;;;;;8.27;3.45;;;;;;;;;;5050605;28;20041;-75
2022/01/23 02:17:27;;;;;;;9.68;3.40;;;;;;;;;;5033818;28;20040;-75
2022/01/23 02:55:39;;;;;;;8.95;3.00;;;;;;;;;;5050133;28;20041;-75
2022/01/23 02:58:08;;;;;;;10.07;3.50;;;;;;;;;;5049930;28;20045;-75
2022/01/23 03:00:46;;;;;;;11.80;3.10;;;;;;;;;;5049824;28;20048;-76
2022/01/23 03:03:15;;;;;;;7.18;3.08;;;;;;;;;;5049670;28;20417;-75
2022/01/23 03:05:41;;;;;;;7.70;2.97;;;;;;;;;;5033110;28;20041;-75
2022/01/23 03:10:47;;;;;;;7.20;3.47;;;;;;;;;;5049819;28;20448;-75
2022/01/23 03:27:01;;;;;;;7.18;3.00;;;;;;;;;;5053474;28;20091;-75
2022/01/23 03:29:39;;;;;;;6.22;3.70;;;;;;;;;;5053603;28;20076;-75
2022/01/23 03:32:43;;;;;;;8.93;3.85;;;;;;;;;;5053385;28;20067;-75
2022/01/23 03:34:57;;;;;;;7.75;3.40;;;;;;;;;;5051386;28;20416;-75
2022/01/23 03:37:23;;;;;;;11.00;3.60;;;;;;;;;;5036920;28;20055;-75
2022/01/23 03:39:49;;;;;;;8.90;4.35;;;;;;;;;;5053777;28;20493;-75
2022/01/23 03:42:15;;;;;;;8.52;4.15;;;;;;;;;;5036780;28;20044;-75
2022/01/23 03:44:52;;;;;;;7.47;3.40;;;;;;;;;;5053494;28;20509;-75
2022/01/23 03:47:33;;;;;;;7.50;3.35;;;;;;;;;;5036671;28;20033;-75
2022/01/23 03:49:59;;;;;;;7.35;3.10;;;;;;;;;;5053364;28;20045;-75
2022/01/23 03:52:26;;;;;;;7.55;2.80;;;;;;;;;;5036666;28;20060;-75
2022/01/23 03:54:52;;;;;;;7.13;2.45;;;;;;;;;;5053062;28;20044;-75
2022/01/23 03:57:18;;;;;;;8.68;3.03;;;;;;;;;;5053070;28;20069;-75
2022/01/23 03:59:44;;;;;;;9.30;4.10;;;;;;;;;;5053077;28;20048;-75
2022/01/23 04:02:10;;;;;;;10.57;4.35;;;;;;;;;;5036166;28;20060;-75
2022/01/23 04:04:42;;;;;;;8.57;3.33;;;;;;;;;;5053035;28;20056;-75
2022/01/23 04:07:08;;;;;;;7.45;2.97;;;;;;;;;;5053010;28;20045;-75
2022/01/23 04:09:34;;;;;;;7.10;3.45;;;;;;;;;;5035748;28;20059;-75
2022/01/23 04:12:02;;;;;;;11.32;3.40;;;;;;;;;;5036284;28;20045;-75
2022/01/23 04:14:30;;;;;;;6.78;2.88;;;;;;;;;;5052586;28;20497;-75
2022/01/23 04:47:22;;;;;;;6.38;3.00;;;;;;;;;;5052216;28;20041;-75
2022/01/23 05:00:35;;;;;;;9.13;3.70;;;;;;;;;;5051942;28;20045;-75
2022/01/23 05:03:58;;;;;;;10.38;2.90;;;;;;;;;;5035004;28;20060;-75
2022/01/23 05:06:07;;;;;;;7.95;3.20;;;;;;;;;;5051278;28;20060;-75
2022/01/23 05:08:36;;;;;;;7.72;3.25;;;;;;;;;;5034794;28;20467;-75
2022/01/23 05:11:03;;;;;;;5.55;3.40;;;;;;;;;;5051594;28;20099;-75
2022/01/23 05:13:29;;;;;;;8.82;3.05;;;;;;;;;;5035193;28;20125;-75
2022/01/23 05:15:55;;;;;;;6.82;3.15;;;;;;;;;;5035218;28;20040;-75
2022/01/23 05:18:22;;;;;;;6.57;3.25;;;;;;;;;;5035261;28;20040;-75
2022/01/23 05:20:55;;;;;;;5.82;3.10;;;;;;;;;;5051661;28;20378;-75
2022/01/23 05:23:21;;;;;;;8.65;3.38;;;;;;;;;;5051516;28;20052;-75
2022/01/23 05:25:47;;;;;;;6.72;3.20;;;;;;;;;;5051448;28;20040;-75
2022/01/23 05:28:13;;;;;;;9.77;3.00;;;;;;;;;;5051324;28;20052;-75
2022/01/23 05:30:40;;;;;;;7.10;3.50;;;;;;;;;;5034787;28;20044;-75
2022/01/23 05:33:06;;;;;;;7.70;2.83;;;;;;;;;;5051015;28;20116;-75
2022/01/23 05:35:32;;;;;;;6.45;3.20;;;;;;;;;;5034595;28;20040;-75
2022/01/23 05:37:58;;;;;;;7.85;3.38;;;;;;;;;;5050631;28;20037;-75
2022/01/23 05:40:27;;;;;;;7.75;2.70;;;;;;;;;;5051329;28;20051;-75
2022/01/23 05:42:53;;;;;;;8.38;2.97;;;;;;;;;;5034310;28;20037;-75
2022/01/23 05:45:19;;;;;;;7.32;3.40;;;;;;;;;;5034461;28;20067;-75
2022/01/23 05:47:45;;;;;;;7.20;3.05;;;;;;;;;;5051018;28;20044;-75
2022/01/23 05:50:11;;;;;;;6.70;3.00;;;;;;;;;;5050835;28;20040;-75
2022/01/23 05:52:38;;;;;;;8.98;3.45;;;;;;;;;;5050836;28;20477;-75
2022/01/23 05:55:04;;;;;;;6.65;3.17;;;;;;;;;;5050726;28;20040;-75
2022/01/23 05:57:30;;;;;;;6.93;3.10;;;;;;;;;;5050720;28;20124;-75
2022/01/23 05:59:56;;;;;;;9.20;3.15;;;;;;;;;;5050608;28;20468;-75
2022/01/23 06:02:22;;;;;;;8.38;3.42;;;;;;;;;;5033689;28;20063;-75
2022/01/23 06:04:48;;;;;;;11.00;3.40;;;;;;;;;;5033938;28;20037;-75
2022/01/23 06:07:14;;;;;;;8.20;3.72;;;;;;;;;;5050668;28;20128;-75
2022/01/23 06:09:41;;;;;;;3.78;2.72;;;;;;;;;;5034060;28;20079;-75
2022/01/23 06:12:07;;;;;;;8.57;3.20;;;;;;;;;;5050403;28;20048;-75
2022/01/23 06:14:33;;;;;;;6.07;2.80;;;;;;;;;;5034152;28;20116;-75
2022/01/23 06:16:59;;;;;;;6.78;3.38;;;;;;;;;;5033832;28;20037;-75
2022/01/23 06:19:25;;;;;;;7.10;3.28;;;;;;;;;;5033965;28;20043;-75
2022/01/23 06:21:52;;;;;;;10.20;3.47;;;;;;;;;;5050192;28;20037;-75
2022/01/23 06:24:26;;;;;;;5.95;3.30;;;;;;;;;;5033642;28;20041;-75
2022/01/23 06:26:56;;;;;;;5.00;3.17;;;;;;;;;;5050355;28;20088;-75
2022/01/23 06:29:23;;;;;;;6.88;3.03;;;;;;;;;;5033564;28;20044;-75
2022/01/23 06:31:49;;;;;;;11.15;3.60;;;;;;;;;;5050420;28;20091;-75
2022/01/23 06:34:17;;;;;;;6.75;3.58;;;;;;;;;;5033395;28;20401;-75
2022/01/23 06:36:43;;;;;;;10.35;3.92;;;;;;;;;;5033621;28;20043;-75
2022/01/23 06:39:10;;;;;;;6.82;2.92;;;;;;;;;;5033490;28;20111;-75
2022/01/23 06:41:36;;;;;;;7.32;2.88;;;;;;;;;;5033897;28;20048;-75
2022/01/23 06:44:03;;;;;;;9.77;4.10;;;;;;;;;;5049979;28;20041;-75
2022/01/23 06:46:30;;;;;;;6.20;2.90;;;;;;;;;;5050293;28;20044;-75
2022/01/23 06:48:56;;;;;;;8.82;3.55;;;;;;;;;;5033315;28;20053;-75
2022/01/23 06:51:22;;;;;;;5.47;2.88;;;;;;;;;;5054226;28;20090;-75
2022/01/23 06:53:48;;;;;;;6.55;2.95;;;;;;;;;;5037747;28;20478;-75
2022/01/23 06:56:14;;;;;;;8.80;3.42;;;;;;;;;;5053994;28;20128;-75
2022/01/23 06:58:40;;;;;;;6.75;3.10;;;;;;;;;;5037406;28;20048;-75
2022/01/23 07:01:07;;;;;;;8.25;3.63;;;;;;;;;;5054133;28;20090;-75
2022/01/23 07:03:37;;;;;;;8.43;2.95;;;;;;;;;;5053721;28;20061;-75
2022/01/23 07:06:03;;;;;;;10.15;3.47;;;;;;;;;;5037633;28;20048;-75
2022/01/23 07:08:29;;;;;;;6.03;2.90;;;;;;;;;;5053915;28;20504;-75
2022/01/23 07:10:55;;;;;;;6.57;3.30;;;;;;;;;;5037262;28;20040;-75
2022/01/23 07:13:22;;;;;;;6.72;3.10;;;;;;;;;;5037343;28;20094;-75
2022/01/23 07:15:48;;;;;;;8.82;3.22;;;;;;;;;;5036947;28;20190;-75
2022/01/23 07:18:18;;;;;;;6.80;2.90;;;;;;;;;;5053797;28;20135;-75
2022/01/23 07:20:44;;;;;;;6.13;3.10;;;;;;;;;;5053725;28;20052;-75
2022/01/23 07:23:10;;;;;;;9.45;3.38;;;;;;;;;;5036930;28;20041;-75
2022/01/23 07:25:36;;;;;;;12.90;3.58;;;;;;;;;;5053791;28;20542;-75
2022/01/23 07:28:03;;;;;;;9.75;3.83;;;;;;;;;;5053429;28;20044;-74
2022/01/23 07:30:40;;;;;;;7.70;3.65;;;;;;;;;;5053499;28;20049;-74
2022/01/23 07:33:06;;;;;;;7.28;3.60;;;;;;;;;;5036776;28;20064;-75
2022/01/23 07:35:32;;;;;;;9.70;3.72;;;;;;;;;;5053420;28;20124;-75
2022/01/23 07:37:58;;;;;;;7.40;3.75;;;;;;;;;;5036866;28;20044;-74
2022/01/23 07:40:24;;;;;;;8.75;3.97;;;;;;;;;;5053333;28;20045;-74
2022/01/23 07:42:50;;;;;;;10.45;3.45;;;;;;;;;;5036796;28;20049;-75
2022/01/23 07:45:16;;;;;;;11.75;4.20;;;;;;;;;;5036143;28;20090;-75
2022/01/23 07:47:42;;;;;;;10.50;3.97;;;;;;;;;;5036710;28;20428;-75
2022/01/23 07:50:09;;;;;;;7.57;3.30;;;;;;;;;;5053001;28;20047;-76
2022/01/23 07:52:36;;;;;;;8.13;3.88;;;;;;;;;;5036414;28;20045;-75
2022/01/23 07:55:13;;;;;;;8.80;4.22;;;;;;;;;;5053196;28;20033;-75
2022/01/23 07:57:39;;;;;;;10.00;4.47;;;;;;;;;;5037005;28;20255;-74
2022/01/23 08:00:06;;;;;;;7.95;3.40;;;;;;;;;;5052149;28;20378;-74
2022/01/23 08:02:32;;;;;;;10.80;3.80;;;;;;;;;;5052825;28;20105;-75
2022/01/23 08:04:58;;;;;;;8.15;3.63;;;;;;;;;;5036161;28;20444;-75
2022/01/23 08:07:31;;;;;;;7.47;3.53;;;;;;;;;;5036206;28;20041;-75
2022/01/23 08:10:02;;;;;;;7.38;3.78;;;;;;;;;;5052553;28;20049;-75
2022/01/23 08:12:29;;;;;;;7.53;4.55;;;;;;;;;;5052792;28;20037;-75
2022/01/23 08:14:56;;;;;;;8.55;3.58;;;;;;;;;;5035942;28;20041;-75
2022/01/23 08:17:25;;;;;;;5.60;3.22;;;;;;;;;;5035919;28;20048;-75
2022/01/23 08:19:59;;;;;;;7.45;3.38;;;;;;;;;;5052575;28;20072;-75
2022/01/23 08:22:26;;;;;;;7.47;3.72;;;;;;;;;;5052585;28;20497;-75
2022/01/23 08:24:54;;;;;;;8.05;3.72;;;;;;;;;;5036126;28;20037;-75
2022/01/23 08:27:20;;;;;;;7.88;2.97;;;;;;;;;;5035920;28;20045;-75
2022/01/23 08:29:46;;;;;;;7.03;3.30;;;;;;;;;;5052342;28;20127;-74
2022/01/23 08:32:12;;;;;;;9.23;3.85;;;;;;;;;;5052210;28;20033;-75
2022/01/23 08:34:38;;;;;;;9.75;3.28;;;;;;;;;;5035763;28;20063;-75
2022/01/23 08:37:05;;;;;;;5.82;3.28;;;;;;;;;;5035480;28;20037;-75
2022/01/23 08:39:34;;;;;;;6.20;2.85;;;;;;;;;;5052028;28;20036;-74
2022/01/23 08:42:00;;;;;;;5.00;2.78;;;;;;;;;;5049264;28;20080;-74
2022/01/23 08:44:27;;;;;;;7.20;3.20;;;;;;;;;;5048564;28;20167;-74
2022/01/23 08:46:54;;;;;;;7.88;3.10;;;;;;;;;;5031860;28;20556;-74
2022/01/23 08:49:21;;;;;;;6.30;2.78;;;;;;;;;;5031816;28;20053;-75
2022/01/23 08:51:48;;;;;;;5.75;2.58;;;;;;;;;;5048446;28;20485;-74
2022/01/23 08:54:14;;;;;;;5.85;2.80;;;;;;;;;;5048351;28;20037;-75
2022/01/23 08:56:41;;;;;;;6.82;3.10;;;;;;;;;;5048488;28;20048;-74
2022/01/23 08:59:07;;;;;;;4.43;2.42;;;;;;;;;;5048033;28;20123;-74
2022/01/23 09:01:33;;;;;;;4.63;2.30;;;;;;;;;;5031503;28;20109;-74
2022/01/23 09:03:59;;;;;;;6.28;2.70;;;;;;;;;;5048055;28;20053;-74
2022/01/23 09:06:25;;;;;;;5.25;2.35;;;;;;;;;;5048015;28;20048;-75
2022/01/23 09:08:53;;;;;;;5.60;2.40;;;;;;;;;;5031460;28;20045;-75
2022/01/23 09:14:04;;;;;;;5.05;2.45;;;;;;;;;;5047354;28;20041;-75
2022/01/23 09:16:30;;;;;;;5.38;2.10;;;;;;;;;;5031477;28;20131;-75
2022/01/23 09:18:56;;;;;;;3.60;2.28;;;;;;;;;;5047730;28;20045;-75
2022/01/23 09:21:22;;;;;;;4.68;2.03;;;;;;;;;;5047920;28;20100;-75
2022/01/23 09:23:48;;;;;;;2.65;1.70;;;;;;;;;;5031485;28;20130;-74
2022/01/23 09:26:17;;;;;;;3.95;2.13;;;;;;;;;;5047884;28;20045;-74
2022/01/23 09:28:45;;;;;;;3.97;1.85;;;;;;;;;;5031528;28;20055;-74
2022/01/23 09:31:13;;;;;;;5.03;1.88;;;;;;;;;;5047507;28;20040;-75
2022/01/23 09:33:39;;;;;;;2.60;1.67;;;;;;;;;;5047150;28;20041;-75
2022/01/23 09:36:05;;;;;;;4.07;1.73;;;;;;;;;;5031197;28;20503;-76
2022/01/23 09:38:31;;;;;;;3.63;2.13;;;;;;;;;;5047503;28;20052;-75
2022/01/23 09:40:58;;;;;;;2.03;1.17;;;;;;;;;;5030736;28;20485;-75
2022/01/23 09:43:26;;;;;;;2.05;1.20;;;;;;;;;;5047168;28;20040;-75
2022/01/23 09:45:54;;;;;;;2.75;1.30;;;;;;;;;;5030507;28;20041;-75
2022/01/23 09:48:21;;;;;;;2.00;0.93;;;;;;;;;;5046844;28;20449;-75
2022/01/23 09:50:48;;;;;;;2.55;1.40;;;;;;;;;;5047598;28;20040;-75
2022/01/23 09:53:16;;;;;;;4.22;1.23;;;;;;;;;;5047337;28;20064;-75
2022/01/23 09:55:45;;;;;;;1.63;1.05;;;;;;;;;;5031116;28;20040;-75
2022/01/23 09:58:11;;;;;;;1.95;1.10;;;;;;;;;;5030509;28;20041;-75
2022/01/23 10:00:37;;;;;;;3.22;1.92;;;;;;;;;;5047198;28;20041;-75
2022/01/23 10:03:03;;;;;;;2.63;1.15;;;;;;;;;;5047008;28;20104;-75
2022/01/23 10:05:30;;;;;;;2.30;1.20;;;;;;;;;;5047247;28;20501;-75
2022/01/23 10:07:57;;;;;;;1.50;0.85;;;;;;;;;;5030709;28;20118;-75
2022/01/23 10:10:27;;;;;;;2.10;1.27;;;;;;;;;;5046773;28;20049;-76
2022/01/23 10:12:58;;;;;;;2.30;1.00;;;;;;;;;;5046964;28;20425;-75
2022/01/23 10:15:28;;;;;;;1.42;0.90;;;;;;;;;;5047070;28;20337;-75
2022/01/23 10:17:54;;;;;;;1.92;0.68;;;;;;;;;;5046942;28;20041;-75
2022/01/23 10:20:20;;;;;;;1.58;0.70;;;;;;;;;;5046792;28;20508;-75
2022/01/23 10:22:49;;;;;;;1.30;0.75;;;;;;;;;;5046303;28;20037;-75
2022/01/23 10:25:20;;;;;;;1.17;0.47;;;;;;;;;;5046949;28;20041;-75
2022/01/23 10:28:01;;;;;;;0.65;0.60;;;;;;;;;;5030061;28;20072;-76
2022/01/23 10:30:27;;;;;;;1.13;0.77;;;;;;;;;;5030421;28;20048;-75
2022/01/23 10:32:58;;;;;;;1.63;0.88;;;;;;;;;;5030233;28;20489;-75
2022/01/23 10:35:24;;;;;;;1.67;0.77;;;;;;;;;;5029950;28;20334;-75
2022/01/23 10:37:52;;;;;;;0.75;0.68;;;;;;;;;;5046863;28;20060;-75
2022/01/23 10:40:31;;;;;;;1.20;0.60;;;;;;;;;;5030367;28;20041;-74
2022/01/23 10:48:35;;;;;;;2.30;0.82;;;;;;;;;;5046413;28;20130;-75
2022/01/23 10:51:13;;;;;;;1.73;0.75;;;;;;;;;;5046517;28;20120;-75
2022/01/23 10:53:58;;;;;;;1.17;0.50;;;;;;;;;;5046545;28;20088;-75
2022/01/23 10:56:25;;;;;;;0.60;0.50;;;;;;;;;;5046547;28;20049;-75
2022/01/23 10:59:03;;;;;;;1.63;0.90;;;;;;;;;;5029454;28;20040;-75
2022/01/23 11:01:30;;;;;;;1.45;0.57;;;;;;;;;;5046614;28;20558;-75
2022/01/23 11:04:06;;;;;;;0.63;0.50;;;;;;;;;;5046277;28;20064;-74
2022/01/23 11:06:32;;;;;;;1.35;0.75;;;;;;;;;;5029749;28;20040;-75
2022/01/23 11:09:08;;;;;;;1.50;0.88;;;;;;;;;;5046241;28;20103;-75
2022/01/23 11:11:46;;;;;;;0.85;0.40;;;;;;;;;;5029861;28;20044;-75
2022/01/23 11:19:43;;;;;;;0.38;0.32;;;;;;;;;;5054500;28;20048;-75
2022/01/23 11:22:17;;;;;;;1.17;0.50;;;;;;;;;;5037986;28;20492;-74
2022/01/23 11:24:45;;;;;;;1.40;0.70;;;;;;;;;;5056724;28;20048;-75
2022/01/23 11:27:11;;;;;;;0.80;0.80;;;;;;;;;;5037916;28;20039;-75
2022/01/23 11:29:37;;;;;;;1.23;0.70;;;;;;;;;;5039309;28;20028;-74
2022/01/23 11:32:04;;;;;;;0.70;0.50;;;;;;;;;;5054133;28;20430;-75
2022/01/23 11:34:32;;;;;;;1.42;0.85;;;;;;;;;;5037632;28;20048;-75
2022/01/23 11:36:58;;;;;;;2.13;0.73;;;;;;;;;;5059397;28;20377;-75
2022/01/23 11:39:43;;;;;;;1.02;0.60;;;;;;;;;;5046903;28;20101;-74
2022/01/23 11:50:47;;;;;;;1.45;0.40;;;;;;;;;;5069771;28;20036;-75
2022/01/23 11:56:29;;;;;;;0.22;0.22;;;;;;;;;;5069325;28;20189;-75
2022/01/23 11:59:12;;;;;;;0.98;0.52;;;;;;;;;;5052294;28;20450;-74
2022/01/23 12:01:40;;;;;;;0.73;0.50;;;;;;;;;;5069345;28;20049;-73
2022/01/23 12:04:11;;;;;;;1.27;0.80;;;;;;;;;;5069351;28;20098;-75
2022/01/23 12:06:38;;;;;;;0.40;0.40;;;;;;;;;;5052603;28;20050;-75
2022/01/23 12:09:11;;;;;;;0.50;0.40;;;;;;;;;;5052528;28;20044;-75
2022/01/23 12:11:43;;;;;;;2.35;0.40;;;;;;;;;;5052250;28;20033;-75
2022/01/23 12:16:58;;;;;;;0.20;0.20;;;;;;;;;;5048673;28;20481;-74
2022/01/23 12:19:25;;;;;;;0.60;0.30;;;;;;;;;;5051055;28;20062;-75
2022/01/23 12:21:53;;;;;;;0.50;0.30;;;;;;;;;;5057891;28;20052;-74
2022/01/23 12:24:19;;;;;;;0.63;0.30;;;;;;;;;;5039823;28;20048;-74
2022/01/23 12:26:46;;;;;;;0.95;0.35;;;;;;;;;;5041661;28;20127;-75
2022/01/23 12:29:14;;;;;;;0.60;0.40;;;;;;;;;;5041122;28;20044;-75
2022/01/23 12:31:40;;;;;;;0.32;0.32;;;;;;;;;;5039876;28;20366;-74
2022/01/23 12:34:07;;;;;;;0.57;0.47;;;;;;;;;;5065270;28;20115;-75
2022/01/23 12:36:35;;;;;;;2.50;0.40;;;;;;;;;;5052178;28;20403;-74
2022/01/23 12:39:07;;;;;;;1.10;0.65;;;;;;;;;;5068681;28;20048;-74
2022/01/23 12:41:36;;;;;;;1.15;0.73;;;;;;;;;;5052310;28;20504;-75
2022/01/23 12:44:21;;;;;;;0.63;0.40;;;;;;;;;;5068581;28;20127;-74
2022/01/23 12:46:49;;;;;;;1.27;0.40;;;;;;;;;;5067825;28;20123;-75
2022/01/23 12:49:18;;;;;;;2.90;0.63;;;;;;;;;;5068092;28;20051;-75
2022/01/23 12:51:44;;;;;;;0.40;0.30;;;;;;;;;;5068591;28;20075;-75
2022/01/23 12:54:16;;;;;;;1.80;0.30;;;;;;;;;;5068272;28;20412;-75
2022/01/23 12:56:44;;;;;;;0.28;0.28;;;;;;;;;;5068209;28;20059;-74
2022/01/23 12:59:13;;;;;;;1.35;0.40;;;;;;;;;;5051438;28;20392;-74
2022/01/23 13:01:43;;;;;;;0.45;0.40;;;;;;;;;;5068141;28;20087;-74
2022/01/23 13:04:09;;;;;;;0.60;0.30;;;;;;;;;;5068360;28;20088;-74
2022/01/23 13:06:36;;;;;;;1.73;0.60;;;;;;;;;;5051700;28;20073;-75
2022/01/23 13:09:14;;;;;;;1.38;0.60;;;;;;;;;;5068029;28;20051;-74
2022/01/23 13:11:56;;;;;;;0.95;0.60;;;;;;;;;;5051300;28;20051;-75
2022/01/23 13:14:27;;;;;;;0.90;0.55;;;;;;;;;;5051801;28;20660;-74
2022/01/23 13:17:25;;;;;;;2.42;0.80;;;;;;;;;;5051137;28;20408;-74
2022/01/23 13:26:21;;;;;;;1.67;0.80;;;;;;;;;;5067410;28;20059;-75
2022/01/23 13:30:54;;;;;;;1.80;0.90;;;;;;;;;;5067616;28;20051;-74
2022/01/23 13:33:22;;;;;;;1.10;0.80;;;;;;;;;;5067517;28;20048;-74
2022/01/23 13:35:51;;;;;;;1.30;0.80;;;;;;;;;;5051189;28;20127;-74
2022/01/23 13:38:18;;;;;;;0.88;0.65;;;;;;;;;;5051077;28;20051;-74
2022/01/23 13:40:45;;;;;;;2.42;0.70;;;;;;;;;;5067840;28;20530;-74
2022/01/23 13:59:17;;;;;;;2.63;1.02;;;;;;;;;;5066544;28;20045;-74
2022/01/23 14:04:14;;;;;;;0.98;0.60;;;;;;;;;;5067567;28;20044;-74
2022/01/23 14:06:40;;;;;;;1.38;0.75;;;;;;;;;;5067014;28;20090;-75
2022/01/23 14:09:07;;;;;;;2.17;1.00;;;;;;;;;;5066842;28;20106;-75
2022/01/23 14:11:34;;;;;;;1.30;0.85;;;;;;;;;;5066590;28;20070;-74
2022/01/23 14:14:13;;;;;;;0.82;0.63;;;;;;;;;;5066869;28;20041;-74
2022/01/23 14:16:39;;;;;;;1.13;0.77;;;;;;;;;;5066852;28;20424;-74
2022/01/23 14:19:15;;;;;;;1.65;1.00;;;;;;;;;;5067132;28;20246;-74
2022/01/23 14:21:43;;;;;;;1.40;0.90;;;;;;;;;;5066543;28;20063;-74
2022/01/23 14:24:09;;;;;;;1.10;0.80;;;;;;;;;;5066680;28;20048;-74
2022/01/23 14:26:35;;;;;;;1.60;0.95;;;;;;;;;;5067072;28;20063;-74
2022/01/23 14:29:05;;;;;;;2.22;1.10;;;;;;;;;;5066532;28;20082;-74
2022/01/23 14:31:37;;;;;;;1.55;0.90;;;;;;;;;;5066628;28;20044;-75
2022/01/23 14:34:05;;;;;;;1.17;0.80;;;;;;;;;;5066367;28;20052;-74
2022/01/23 14:36:36;;;;;;;2.05;1.17;;;;;;;;;;5050236;28;20407;-74
2022/01/23 14:39:04;;;;;;;1.67;1.00;;;;;;;;;;5066689;28;20041;-74
2022/01/23 14:41:32;;;;;;;1.90;1.00;;;;;;;;;;5066944;28;20048;-74
2022/01/23 14:43:58;;;;;;;1.45;1.05;;;;;;;;;;5049910;28;20044;-74
2022/01/23 14:46:24;;;;;;;2.67;0.98;;;;;;;;;;5049754;28;20158;-75
2022/01/23 14:48:57;;;;;;;1.83;0.82;;;;;;;;;;5066827;28;20053;-74
2022/01/23 14:51:25;;;;;;;2.03;1.20;;;;;;;;;;5050091;28;20040;-74
2022/01/23 14:53:52;;;;;;;1.70;1.08;;;;;;;;;;5049759;28;20040;-75
2022/01/23 14:56:20;;;;;;;2.30;1.23;;;;;;;;;;5049989;28;20055;-74
2022/01/23 14:58:47;;;;;;;1.17;0.80;;;;;;;;;;5049357;28;20400;-74
2022/01/23 15:01:14;;;;;;;1.88;1.20;;;;;;;;;;5049869;28;20048;-74
2022/01/23 15:06:34;;;;;;;1.52;1.23;;;;;;;;;;5066441;28;20427;-74
2022/01/23 15:09:07;;;;;;;2.10;1.10;;;;;;;;;;5066346;28;20086;-74
2022/01/23 15:11:33;;;;;;;2.47;0.88;;;;;;;;;;5051840;28;20047;-74
2022/01/23 15:13:59;;;;;;;1.52;1.00;;;;;;;;;;5053491;28;20564;-74
2022/01/23 15:16:25;;;;;;;2.30;1.08;;;;;;;;;;5070193;28;20178;-74
2022/01/23 15:18:51;;;;;;;3.47;1.40;;;;;;;;;;5070151;28;20097;-74
2022/01/23 15:21:17;;;;;;;4.05;1.35;;;;;;;;;;5070191;28;20037;-74
2022/01/23 15:23:43;;;;;;;1.38;0.88;;;;;;;;;;5069663;28;20778;-74
2022/01/23 15:26:09;;;;;;;2.03;1.15;;;;;;;;;;5053707;28;20044;-74
2022/01/23 15:28:35;;;;;;;1.35;1.20;;;;;;;;;;5069769;28;20364;-74
2022/01/23 15:31:01;;;;;;;1.90;1.13;;;;;;;;;;5053893;28;20388;-74
2022/01/23 15:33:27;;;;;;;2.50;1.42;;;;;;;;;;5064114;28;20098;-74
2022/01/23 15:35:56;;;;;;;2.20;0.80;;;;;;;;;;5042799;28;20134;-74
2022/01/23 15:38:26;;;;;;;2.05;1.20;;;;;;;;;;5050324;28;20052;-74
2022/01/23 15:40:53;;;;;;;0.90;0.75;;;;;;;;;;5033349;28;20281;-74
2022/01/23 15:43:18;;;;;;;1.45;1.00;;;;;;;;;;5049734;28;20053;-74
2022/01/23 15:45:45;;;;;;;3.33;1.00;;;;;;;;;;5049725;28;20052;-74
2022/01/23 15:48:11;;;;;;;1.52;1.10;;;;;;;;;;5032922;28;20045;-74
2022/01/23 15:50:37;;;;;;;1.67;1.20;;;;;;;;;;5049410;28;20045;-74
2022/01/23 15:53:03;;;;;;;1.50;1.30;;;;;;;;;;5049829;28;20090;-74
2022/01/23 15:55:29;;;;;;;3.85;1.30;;;;;;;;;;5049478;28;20072;-74
2022/01/23 15:57:56;;;;;;;2.03;1.20;;;;;;;;;;5049758;28;20045;-74
2022/01/23 16:00:22;;;;;;;3.10;1.30;;;;;;;;;;5048962;28;20094;-74
2022/01/23 16:02:49;;;;;;;2.17;1.05;;;;;;;;;;5049319;28;20057;-74
2022/01/23 16:05:16;;;;;;;2.28;1.10;;;;;;;;;;5030113;28;20124;-74
2022/01/23 16:07:42;;;;;;;2.25;1.30;;;;;;;;;;5058813;28;20074;-74
2022/01/23 16:10:08;;;;;;;1.30;0.93;;;;;;;;;;5067686;28;20517;-74
2022/01/23 16:12:35;;;;;;;4.28;1.30;;;;;;;;;;5064541;28;20040;-74
2022/01/23 16:15:01;;;;;;;1.58;1.05;;;;;;;;;;5052139;28;20283;-74
2022/01/23 16:17:27;;;;;;;1.95;1.23;;;;;;;;;;5062888;28;20417;-74
2022/01/23 16:19:55;;;;;;;2.80;1.63;;;;;;;;;;5048936;28;20059;-74
2022/01/23 16:22:24;;;;;;;2.83;1.52;;;;;;;;;;5037310;28;20045;-75
2022/01/23 16:24:50;;;;;;;2.08;1.10;;;;;;;;;;5069016;28;20110;-74
2022/01/23 16:27:16;;;;;;;6.05;1.63;;;;;;;;;;5069190;28;20455;-74
2022/01/23 16:29:42;;;;;;;1.55;1.42;;;;;;;;;;5068783;28;20039;-74
2022/01/23 16:32:09;;;;;;;3.80;1.35;;;;;;;;;;5052263;28;20052;-74
2022/01/23 16:34:36;;;;;;;1.50;1.00;;;;;;;;;;5068681;28;20051;-74
2022/01/23 16:37:03;;;;;;;3.13;1.40;;;;;;;;;;5068239;28;20183;-74
2022/01/23 16:39:29;;;;;;;4.63;2.17;;;;;;;;;;5051999;28;20554;-75
2022/01/23 16:41:55;;;;;;;4.25;1.85;;;;;;;;;;5051964;28;20101;-75
2022/01/23 16:44:25;;;;;;;2.97;1.70;;;;;;;;;;5068772;28;20047;-74
2022/01/23 16:46:51;;;;;;;3.70;1.73;;;;;;;;;;5068685;28;20127;-74
2022/01/23 16:49:17;;;;;;;3.08;1.75;;;;;;;;;;5068209;28;20041;-74
2022/01/23 16:51:43;;;;;;;4.53;2.25;;;;;;;;;;5051565;28;20036;-75
2022/01/23 16:54:11;;;;;;;2.70;2.08;;;;;;;;;;5051829;28;20071;-74
2022/01/23 16:56:38;;;;;;;3.85;1.50;;;;;;;;;;5068652;28;20050;-74
2022/01/23 16:59:04;;;;;;;2.75;1.35;;;;;;;;;;5068186;28;20051;-74
2022/01/23 17:01:30;;;;;;;5.00;1.50;;;;;;;;;;5051140;28;20048;-74
2022/01/23 17:03:56;;;;;;;3.28;1.48;;;;;;;;;;5067601;28;20065;-74
2022/01/23 17:06:30;;;;;;;3.03;1.30;;;;;;;;;;5068213;28;20059;-74
2022/01/23 17:08:56;;;;;;;3.33;1.50;;;;;;;;;;5068346;28;20059;-74
2022/01/23 17:11:22;;;;;;;3.42;1.52;;;;;;;;;;5052282;28;20395;-74
2022/01/23 17:13:48;;;;;;;3.10;1.48;;;;;;;;;;5054928;28;20136;-74
2022/01/23 17:16:15;;;;;;;3.40;1.48;;;;;;;;;;5071336;28;20114;-74
2022/01/23 17:18:41;;;;;;;3.03;1.60;;;;;;;;;;5054974;28;20131;-74
2022/01/23 17:21:08;;;;;;;2.78;2.05;;;;;;;;;;5054843;28;20463;-74
2022/01/23 17:23:34;;;;;;;4.55;1.88;;;;;;;;;;5071472;28;20845;-74
2022/01/23 17:26:00;;;;;;;2.17;1.50;;;;;;;;;;5066857;28;20067;-74
2022/01/23 17:28:26;;;;;;;2.40;1.52;;;;;;;;;;5050883;28;20448;-74
2022/01/23 17:30:52;;;;;;;4.53;1.77;;;;;;;;;;5051116;28;20076;-74
2022/01/23 17:33:18;;;;;;;3.83;1.60;;;;;;;;;;5050636;28;20091;-74
2022/01/23 17:35:45;;;;;;;3.75;1.75;;;;;;;;;;5067625;28;20155;-74
2022/01/23 17:38:11;;;;;;;5.25;1.90;;;;;;;;;;5050933;28;20051;-74
2022/01/23 17:40:37;;;;;;;5.40;2.30;;;;;;;;;;5067558;28;20086;-74
2022/01/23 17:43:04;;;;;;;3.03;1.98;;;;;;;;;;5067287;28;20182;-74
2022/01/23 17:45:36;;;;;;;6.95;2.58;;;;;;;;;;5050804;28;20044;-74
2022/01/23 17:50:48;;;;;;;3.65;1.83;;;;;;;;;;5055366;28;20037;-74
2022/01/23 17:53:14;;;;;;;2.25;1.77;;;;;;;;;;5040750;28;20098;-74
2022/01/23 17:55:40;;;;;;;1.70;1.40;;;;;;;;;;5038581;28;20040;-74
2022/01/23 17:58:06;;;;;;;2.88;1.75;;;;;;;;;;5057094;28;20033;-74
2022/01/23 18:00:32;;;;;;;3.90;1.77;;;;;;;;;;5039243;28;20043;-74
2022/01/23 18:02:58;;;;;;;3.33;1.98;;;;;;;;;;5057455;28;20512;-74
2022/01/23 18:05:25;;;;;;;3.30;1.77;;;;;;;;;;5056351;28;20084;-74